Time;durP1;ratioP1;P1;durP2;ratioP2;P2;SDS_P1;SDS_P2;PMS_P1;PMS_P2;Temp;Humidity;BMP_temperature;BMP_pressure;BME280_temperature;BME280_humidity;BME280_pressure;Samples;Min_cycle;Max_cycle;Signal;HPM_P1;HPM_P2
2023/06/27 00:00:52;;;;;;;;;;;20.70;65.50;;;;;;7603238;19;20409;-82
2023/06/27 00:03:27;;;;;;;;;;;20.90;66.00;;;;;;7596002;19;19933;-83
2023/06/27 00:06:04;;;;;;;;;;;21.00;65.90;;;;;;7595048;19;19919;-83
2023/06/27 00:08:36;;;;;;;;;;;20.90;66.70;;;;;;7593661;19;19926;-83
2023/06/27 00:11:08;;;;;;;;;;;20.90;67.00;;;;;;7598427;19;20685;-83
2023/06/27 00:13:41;;;;;;;;;;;20.90;66.10;;;;;;7582528;19;20791;-83
2023/06/27 00:16:13;;;;;;;;;;;20.90;66.10;;;;;;7575957;19;19922;-83
2023/06/27 00:18:48;;;;;;;;;;;20.80;65.90;;;;;;7580204;19;19922;-83
2023/06/27 00:21:28;;;;;;;;;;;20.80;67.10;;;;;;7542753;19;19962;-82
2023/06/27 00:24:01;;;;;;;;;;;20.80;66.70;;;;;;7576813;19;20050;-82
2023/06/27 00:26:33;;;;;;;;;;;20.70;66.10;;;;;;7570363;19;19926;-83
2023/06/27 00:29:05;;;;;;;;;;;20.50;65.80;;;;;;7583495;19;20476;-83
2023/06/27 00:31:38;;;;;;;;;;;20.60;67.20;;;;;;7572237;19;20851;-84
2023/06/27 00:34:13;;;;;;;;;;;20.50;66.40;;;;;;7587998;19;19970;-83
2023/06/27 00:36:47;;;;;;;;;;;20.60;67.40;;;;;;7588336;19;19965;-83
2023/06/27 00:39:19;;;;;;;;;;;20.50;67.50;;;;;;7594264;19;19926;-83
2023/06/27 00:41:53;;;;;;;;;;;20.50;67.90;;;;;;7589472;19;20006;-84
2023/06/27 00:44:25;;;;;;;;;;;20.50;67.80;;;;;;7597698;19;19926;-83
2023/06/27 00:46:58;;;;;;;;;;;20.50;68.90;;;;;;7598644;19;19914;-83
2023/06/27 00:49:30;;;;;;;;;;;20.40;67.50;;;;;;7564917;19;19919;-83
2023/06/27 00:52:03;;;;;;;;;;;20.40;67.30;;;;;;7559133;19;19929;-83
2023/06/27 00:54:36;;;;;;;;;;;20.20;67.50;;;;;;7590675;19;19923;-83
2023/06/27 00:57:09;;;;;;;;;;;20.20;67.70;;;;;;7597667;19;19930;-83
2023/06/27 00:59:53;;;;;;;;;;;20.30;67.90;;;;;;7590122;19;20448;-83
2023/06/27 01:02:26;;;;;;;;;;;20.30;68.30;;;;;;7602479;19;19922;-83
2023/06/27 01:04:58;;;;;;;;;;;20.40;70.00;;;;;;7586742;19;19922;-83
2023/06/27 01:07:49;;;;;;;;;;;20.40;73.00;;;;;;7596795;19;19942;-82
2023/06/27 01:10:34;;;;;;;;;;;20.10;73.30;;;;;;7601442;19;20022;-83
2023/06/27 01:13:09;;;;;;;;;;;20.00;75.00;;;;;;7599161;19;19919;-84
2023/06/27 01:15:42;;;;;;;;;;;19.90;72.10;;;;;;7613170;19;19915;-84
2023/06/27 01:18:15;;;;;;;;;;;;;;;;;;7597627;19;20004;-82
2023/06/27 01:20:49;;;;;;;;;;;19.80;75.90;;;;;;7583318;19;19918;-83
2023/06/27 01:23:34;;;;;;;;;;;19.50;76.70;;;;;;7600440;19;19918;-83
2023/06/27 01:26:09;;;;;;;;;;;19.50;79.30;;;;;;7599224;19;19918;-82
2023/06/27 01:28:41;;;;;;;;;;;19.40;78.20;;;;;;7609746;19;19922;-82
2023/06/27 01:31:23;;;;;;;;;;;19.50;77.20;;;;;;7622562;19;19925;-82
2023/06/27 01:33:58;;;;;;;;;;;19.40;76.30;;;;;;7618667;19;20491;-83
2023/06/27 01:36:46;;;;;;;;;;;19.40;76.60;;;;;;7628632;19;19928;-82
2023/06/27 01:39:21;;;;;;;;;;;19.40;77.20;;;;;;7624200;19;19922;-84
2023/06/27 01:41:58;;;;;;;;;;;19.30;79.30;;;;;;7629958;19;19922;-81
2023/06/27 01:44:31;;;;;;;;;;;19.60;78.60;;;;;;7631356;19;20031;-82
2023/06/27 01:47:04;;;;;;;;;;;19.30;77.50;;;;;;7615320;19;20506;-82
2023/06/27 01:49:36;;;;;;;;;;;19.30;80.30;;;;;;7611349;19;20019;-82
2023/06/27 01:52:12;;;;;;;;;;;19.20;77.10;;;;;;7614485;19;19922;-82
2023/06/27 01:54:44;;;;;;;;;;;19.20;76.50;;;;;;7614372;19;20030;-82
2023/06/27 01:57:17;;;;;;;;;;;19.30;75.00;;;;;;7610932;19;19926;-82
2023/06/27 01:59:49;;;;;;;;;;;19.30;74.00;;;;;;7607508;19;19923;-83
2023/06/27 02:02:25;;;;;;;;;;;19.20;76.20;;;;;;7598937;19;20135;-82
2023/06/27 02:04:57;;;;;;;;;;;19.30;73.60;;;;;;7602962;19;20277;-81
2023/06/27 02:07:30;;;;;;;;;;;19.40;73.60;;;;;;7609680;19;19930;-80
2023/06/27 02:10:02;;;;;;;;;;;19.30;74.10;;;;;;7602146;19;19926;-83
2023/06/27 02:12:35;;;;;;;;;;;19.30;73.90;;;;;;7596241;19;21140;-83
2023/06/27 02:15:08;;;;;;;;;;;19.30;73.10;;;;;;7584604;19;20529;-81
2023/06/27 02:17:40;;;;;;;;;;;19.30;74.50;;;;;;7593501;19;19978;-82
2023/06/27 02:20:13;;;;;;;;;;;19.30;74.40;;;;;;7580495;19;19990;-82
2023/06/27 02:22:45;;;;;;;;;;;19.30;73.60;;;;;;7582818;19;19914;-81
2023/06/27 02:25:24;;;;;;;;;;;19.30;73.10;;;;;;7596132;19;20439;-82
2023/06/27 02:27:56;;;;;;;;;;;19.20;72.40;;;;;;7598195;19;19928;-81
2023/06/27 02:30:28;;;;;;;;;;;19.10;73.20;;;;;;7610928;19;20318;-84
2023/06/27 02:33:01;;;;;;;;;;;19.10;73.10;;;;;;7633267;19;19935;-82
2023/06/27 02:35:35;;;;;;;;;;;19.20;74.20;;;;;;7632987;19;19918;-82
2023/06/27 02:38:07;;;;;;;;;;;19.20;72.80;;;;;;7638053;19;19919;-81
2023/06/27 02:40:39;;;;;;;;;;;19.20;72.80;;;;;;7631049;19;19915;-83
2023/06/27 02:43:12;;;;;;;;;;;19.10;72.90;;;;;;7620909;19;20006;-82
2023/06/27 02:45:44;;;;;;;;;;;19.10;73.30;;;;;;7632544;19;19943;-83
2023/06/27 02:48:16;;;;;;;;;;;19.10;74.20;;;;;;7627409;19;19918;-83
2023/06/27 02:50:50;;;;;;;;;;;19.20;74.30;;;;;;7630490;19;19922;-84
2023/06/27 02:53:22;;;;;;;;;;;19.30;73.70;;;;;;7631881;19;19973;-83
2023/06/27 02:55:57;;;;;;;;;;;19.30;73.40;;;;;;7619496;19;19917;-81
2023/06/27 02:58:30;;;;;;;;;;;19.10;73.20;;;;;;7628849;19;20169;-81
2023/06/27 03:01:03;;;;;;;;;;;19.10;74.70;;;;;;7602482;19;19922;-81
2023/06/27 03:03:39;;;;;;;;;;;19.10;73.90;;;;;;7604914;19;19974;-81
2023/06/27 03:06:12;;;;;;;;;;;19.10;73.90;;;;;;7628020;19;19921;-80
2023/06/27 03:08:44;;;;;;;;;;;19.10;75.00;;;;;;7628046;19;19914;-81
2023/06/27 03:11:17;;;;;;;;;;;19.10;75.20;;;;;;7620453;19;19906;-82
2023/06/27 03:13:49;;;;;;;;;;;19.10;74.40;;;;;;7627814;19;19918;-81
2023/06/27 03:16:21;;;;;;;;;;;18.90;74.30;;;;;;7616608;19;19915;-85
2023/06/27 03:18:58;;;;;;;;;;;19.00;74.70;;;;;;7621566;19;19914;-82
2023/06/27 03:21:36;;;;;;;;;;;18.90;73.70;;;;;;7612910;19;19923;-81
2023/06/27 03:24:13;;;;;;;;;;;18.90;74.80;;;;;;7569530;19;20618;-82
2023/06/27 03:26:50;;;;;;;;;;;18.90;73.90;;;;;;7593798;19;20377;-82
2023/06/27 03:29:23;;;;;;;;;;;18.90;75.00;;;;;;7594823;19;20805;-80
2023/06/27 03:31:57;;;;;;;;;;;18.90;74.00;;;;;;7637259;19;19927;-81
2023/06/27 03:34:33;;;;;;;;;;;19.00;74.90;;;;;;7632624;19;20031;-80
2023/06/27 03:37:06;;;;;;;;;;;19.00;74.50;;;;;;7625592;19;19914;-81
2023/06/27 03:39:39;;;;;;;;;;;18.90;74.00;;;;;;7627222;19;20456;-82
2023/06/27 03:42:12;;;;;;;;;;;18.80;73.90;;;;;;7629064;19;19939;-81
2023/06/27 03:44:45;;;;;;;;;;;18.80;74.30;;;;;;7626636;19;19914;-80
2023/06/27 03:47:19;;;;;;;;;;;18.80;74.10;;;;;;7631724;19;20501;-80
2023/06/27 03:49:52;;;;;;;;;;;18.80;74.40;;;;;;7627527;19;19911;-80
2023/06/27 03:52:25;;;;;;;;;;;18.70;74.00;;;;;;7612349;19;19910;-81
2023/06/27 03:54:58;;;;;;;;;;;18.70;73.70;;;;;;7614932;19;19925;-81
2023/06/27 03:57:31;;;;;;;;;;;18.80;74.20;;;;;;7628156;19;19915;-83
2023/06/27 04:00:07;;;;;;;;;;;18.60;73.50;;;;;;7620215;19;19914;-80
2023/06/27 04:02:46;;;;;;;;;;;18.70;74.40;;;;;;7609621;19;19956;-79
2023/06/27 04:05:20;;;;;;;;;;;18.80;74.10;;;;;;7618223;19;19922;-80
2023/06/27 04:07:54;;;;;;;;;;;18.70;74.20;;;;;;7628142;19;19924;-80
2023/06/27 04:10:26;;;;;;;;;;;18.70;74.40;;;;;;7626696;19;19911;-80
2023/06/27 04:12:58;;;;;;;;;;;18.70;74.70;;;;;;7614860;19;19971;-80
2023/06/27 04:15:31;;;;;;;;;;;18.70;74.40;;;;;;7622770;19;19915;-80
2023/06/27 04:18:03;;;;;;;;;;;18.60;74.90;;;;;;7638587;19;19921;-80
2023/06/27 04:20:36;;;;;;;;;;;18.80;74.80;;;;;;7618006;19;19910;-81
2023/06/27 04:23:09;;;;;;;;;;;18.70;74.30;;;;;;7620630;19;19934;-81
2023/06/27 04:25:43;;;;;;;;;;;18.60;74.10;;;;;;7621409;19;19921;-81
2023/06/27 04:28:16;;;;;;;;;;;18.60;75.80;;;;;;7628640;19;19919;-81
2023/06/27 04:30:51;;;;;;;;;;;18.50;74.60;;;;;;7624559;19;19943;-80
2023/06/27 04:33:24;;;;;;;;;;;18.50;74.60;;;;;;7604088;19;19926;-80
2023/06/27 04:36:00;;;;;;;;;;;18.60;75.10;;;;;;7605214;19;19960;-80
2023/06/27 04:38:40;;;;;;;;;;;18.50;74.60;;;;;;7616458;19;19911;-79
2023/06/27 04:41:12;;;;;;;;;;;18.50;74.80;;;;;;7610447;19;19919;-79
2023/06/27 04:43:44;;;;;;;;;;;18.40;74.90;;;;;;7623370;19;19921;-81
2023/06/27 04:46:16;;;;;;;;;;;18.50;74.80;;;;;;7609026;19;19927;-80
2023/06/27 04:48:49;;;;;;;;;;;18.40;74.70;;;;;;7626827;19;19915;-80
2023/06/27 04:51:22;;;;;;;;;;;18.50;76.40;;;;;;7610715;19;19927;-80
2023/06/27 04:53:54;;;;;;;;;;;18.50;75.60;;;;;;7619544;19;19922;-81
2023/06/27 04:56:28;;;;;;;;;;;18.40;74.70;;;;;;7614695;19;19951;-82
2023/06/27 04:59:00;;;;;;;;;;;18.50;75.10;;;;;;7612348;19;19914;-81
2023/06/27 05:01:33;;;;;;;;;;;18.40;74.80;;;;;;7621124;19;19927;-81
2023/06/27 05:04:05;;;;;;;;;;;18.50;75.40;;;;;;7608984;19;19932;-82
2023/06/27 05:06:37;;;;;;;;;;;18.40;75.30;;;;;;7620075;19;19923;-80
2023/06/27 05:09:12;;;;;;;;;;;18.40;76.20;;;;;;7616463;19;19918;-77
2023/06/27 05:11:44;;;;;;;;;;;18.40;76.10;;;;;;7588559;19;19962;-76
2023/06/27 05:14:17;;;;;;;;;;;18.30;75.00;;;;;;7575851;19;19923;-76
2023/06/27 05:16:49;;;;;;;;;;;18.30;74.80;;;;;;7624106;19;19914;-76
2023/06/27 05:19:27;;;;;;;;;;;18.40;75.80;;;;;;7599615;19;19927;-76
2023/06/27 05:22:00;;;;;;;;;;;18.40;75.10;;;;;;7604726;19;19925;-76
2023/06/27 05:24:33;;;;;;;;;;;18.40;75.00;;;;;;7595499;19;19925;-76
2023/06/27 05:27:08;;;;;;;;;;;18.50;75.90;;;;;;7590892;19;19914;-76
2023/06/27 05:29:40;;;;;;;;;;;18.40;75.40;;;;;;7596734;19;19926;-78
2023/06/27 05:32:13;;;;;;;;;;;18.30;75.90;;;;;;7606725;19;19923;-76
2023/06/27 05:34:45;;;;;;;;;;;18.40;75.00;;;;;;7591963;19;19932;-75
2023/06/27 05:37:20;;;;;;;;;;;18.40;75.00;;;;;;7607691;19;19914;-76
2023/06/27 05:39:52;;;;;;;;;;;18.50;76.20;;;;;;7632806;19;19998;-77
2023/06/27 05:42:24;;;;;;;;;;;18.40;75.00;;;;;;7629806;19;19914;-77
2023/06/27 05:44:57;;;;;;;;;;;18.50;76.60;;;;;;7632987;19;19918;-77
2023/06/27 05:47:29;;;;;;;;;;;18.50;75.10;;;;;;7633486;19;19994;-76
2023/06/27 05:50:01;;;;;;;;;;;18.50;75.40;;;;;;7643486;19;19926;-77
2023/06/27 05:52:33;;;;;;;;;;;18.60;75.20;;;;;;7645300;19;20739;-77
2023/06/27 05:55:06;;;;;;;;;;;18.50;75.00;;;;;;7633601;19;19915;-78
2023/06/27 05:57:38;;;;;;;;;;;18.60;76.40;;;;;;7627909;19;20320;-76
2023/06/27 06:00:11;;;;;;;;;;;18.80;75.30;;;;;;7638688;19;19926;-76
2023/06/27 06:02:43;;;;;;;;;;;18.60;75.70;;;;;;7636318;19;19969;-77
2023/06/27 06:05:18;;;;;;;;;;;18.50;76.20;;;;;;7628441;19;19922;-77
2023/06/27 06:07:51;;;;;;;;;;;18.50;75.60;;;;;;7610574;19;21008;-77
2023/06/27 06:10:23;;;;;;;;;;;18.50;75.10;;;;;;7608424;19;20839;-76
2023/06/27 06:12:56;;;;;;;;;;;18.50;75.70;;;;;;7620570;19;19923;-77
2023/06/27 06:15:28;;;;;;;;;;;18.50;75.10;;;;;;7625016;19;19922;-76
2023/06/27 06:18:00;;;;;;;;;;;18.60;75.50;;;;;;7617034;19;19918;-76
2023/06/27 06:20:32;;;;;;;;;;;18.70;76.50;;;;;;7613572;19;19915;-77
2023/06/27 06:23:04;;;;;;;;;;;18.80;75.70;;;;;;7611200;19;19922;-76
2023/06/27 06:25:36;;;;;;;;;;;18.80;75.90;;;;;;7607536;19;19918;-76
2023/06/27 06:28:08;;;;;;;;;;;18.80;76.20;;;;;;7605294;19;19943;-74
2023/06/27 06:30:41;;;;;;;;;;;18.80;74.80;;;;;;7609477;19;19940;-75
2023/06/27 06:33:13;;;;;;;;;;;18.80;77.60;;;;;;7587323;19;20798;-76
2023/06/27 06:35:45;;;;;;;;;;;;;;;;;;7599361;19;19961;-76
2023/06/27 06:38:17;;;;;;;;;;;18.70;75.00;;;;;;7612050;19;19930;-77
2023/06/27 06:40:50;;;;;;;;;;;19.00;75.80;;;;;;7609004;19;19930;-76
2023/06/27 06:43:26;;;;;;;;;;;18.50;76.10;;;;;;7600927;19;19922;-76
2023/06/27 06:45:58;;;;;;;;;;;18.50;76.20;;;;;;7588435;19;19934;-77
2023/06/27 06:48:31;;;;;;;;;;;18.60;75.90;;;;;;7608145;19;19918;-77
2023/06/27 06:51:03;;;;;;;;;;;18.50;77.10;;;;;;7585347;19;21031;-76
2023/06/27 06:53:35;;;;;;;;;;;18.50;76.00;;;;;;7597577;19;19910;-78
2023/06/27 06:56:07;;;;;;;;;;;18.40;77.90;;;;;;7601159;19;19937;-77
2023/06/27 06:58:39;;;;;;;;;;;18.60;79.30;;;;;;7605066;19;19934;-76
2023/06/27 07:01:11;;;;;;;;;;;18.60;78.70;;;;;;7608739;19;19939;-76
2023/06/27 07:03:44;;;;;;;;;;;18.70;79.50;;;;;;7603527;19;19991;-77
2023/06/27 07:06:16;;;;;;;;;;;18.70;77.70;;;;;;7605140;19;20005;-78
2023/06/27 07:08:48;;;;;;;;;;;18.60;77.20;;;;;;7608580;19;19957;-76
2023/06/27 07:11:21;;;;;;;;;;;18.70;79.50;;;;;;7584313;19;19922;-79
2023/06/27 07:13:53;;;;;;;;;;;18.60;80.00;;;;;;7609939;19;19922;-79
2023/06/27 07:16:25;;;;;;;;;;;18.60;79.00;;;;;;7598973;19;20382;-78
2023/06/27 07:18:57;;;;;;;;;;;18.60;78.50;;;;;;7600240;19;19943;-79
2023/06/27 07:21:29;;;;;;;;;;;18.70;80.10;;;;;;7602549;19;19929;-79
2023/06/27 07:24:01;;;;;;;;;;;18.70;76.80;;;;;;7601425;19;19926;-79
2023/06/27 07:26:33;;;;;;;;;;;18.70;78.40;;;;;;7607653;19;19924;-78
2023/06/27 07:29:05;;;;;;;;;;;18.70;78.90;;;;;;7605583;19;19932;-77
2023/06/27 07:31:37;;;;;;;;;;;18.70;77.80;;;;;;7596552;19;19939;-78
2023/06/27 07:34:10;;;;;;;;;;;18.70;79.10;;;;;;7574823;19;20488;-78
2023/06/27 07:36:42;;;;;;;;;;;18.80;77.00;;;;;;7607799;19;19930;-78
2023/06/27 07:39:15;;;;;;;;;;;;;;;;;;7589561;19;20449;-78
2023/06/27 07:41:47;;;;;;;;;;;18.90;78.30;;;;;;7600574;19;19953;-79
2023/06/27 07:44:19;;;;;;;;;;;19.10;76.10;;;;;;7592627;19;19919;-77
2023/06/27 07:46:52;;;;;;;;;;;;;;;;;;7599882;19;19982;-76
2023/06/27 07:49:24;;;;;;;;;;;;;;;;;;7582833;19;20195;-77
2023/06/27 07:51:57;;;;;;;;;;;;;;;;;;7601383;19;19936;-77
2023/06/27 07:54:29;;;;;;;;;;;;;;;;;;7581175;19;20531;-78
2023/06/27 07:57:02;;;;;;;;;;;;;;;;;;7587008;19;19933;-77
2023/06/27 07:59:37;;;;;;;;;;;;;;;;;;7563996;19;19938;-74
2023/06/27 08:02:10;;;;;;;;;;;;;;;;;;7565961;19;19923;-75
2023/06/27 08:04:43;;;;;;;;;;;;;;;;;;7571422;19;20736;-79
2023/06/27 08:07:16;;;;;;;;;;;;;;;;;;7585536;19;19911;-77
2023/06/27 08:09:48;;;;;;;;;;;;;;;;;;7582126;19;19952;-79
2023/06/27 08:12:21;;;;;;;;;;;;;;;;;;7598557;19;20736;-77
2023/06/27 08:14:53;;;;;;;;;;;;;;;;;;7584149;19;19994;-77
2023/06/27 08:17:26;;;;;;;;;;;;;;;;;;7601318;19;20017;-78
2023/06/27 08:19:59;;;;;;;;;;;;;;;;;;7599376;19;19922;-79
2023/06/27 08:22:31;;;;;;;;;;;;;;;;;;7596903;19;19914;-78
2023/06/27 08:25:04;;;;;;;;;;;;;;;;;;7590717;19;19930;-78
2023/06/27 08:27:36;;;;;;;;;;;;;;;;;;7595191;19;19922;-79
2023/06/27 08:30:09;;;;;;;;;;;;;;;;;;7600976;19;20340;-76
2023/06/27 08:32:41;;;;;;;;;;;;;;;;;;7602473;19;21010;-78
2023/06/27 08:35:14;;;;;;;;;;;;;;;;;;7588981;19;21357;-77
2023/06/27 08:37:46;;;;;;;;;;;;;;;;;;7601891;19;20224;-78
2023/06/27 08:40:20;;;;;;;;;;;;;;;;;;7605776;19;20980;-77
2023/06/27 08:42:54;;;;;;;;;;;;;;;;;;7594187;19;19930;-78
2023/06/27 08:45:26;;;;;;;;;;;;;;;;;;7598143;19;19926;-78
2023/06/27 08:47:59;;;;;;;;;;;;;;;;;;7605051;19;19953;-78
2023/06/27 08:50:32;;;;;;;;;;;;;;;;;;7608876;19;19918;-77
2023/06/27 08:53:04;;;;;;;;;;;;;;;;;;7603877;19;19957;-78
2023/06/27 08:55:37;;;;;;;;;;;;;;;;;;7599460;19;19918;-77
2023/06/27 08:58:09;;;;;;;;;;;;;;;;;;7590250;19;19963;-78
2023/06/27 09:00:41;;;;;;;;;;;;;;;;;;7587920;19;19964;-77
2023/06/27 09:03:14;;;;;;;;;;;;;;;;;;7599692;19;20891;-77
2023/06/27 09:05:50;;;;;;;;;;;;;;;;;;7597813;19;19922;-78
2023/06/27 09:08:22;;;;;;;;;;;;;;;;;;7603056;19;19933;-78
2023/06/27 09:10:55;;;;;;;;;;;;;;;;;;7599953;19;20427;-79
2023/06/27 09:13:28;;;;;;;;;;;;;;;;;;7597029;19;19925;-79
2023/06/27 09:16:00;;;;;;;;;;;;;;;;;;7595346;19;21266;-77
2023/06/27 09:18:32;;;;;;;;;;;;;;;;;;7595087;19;20294;-77
2023/06/27 09:21:05;;;;;;;;;;;;;;;;;;7594780;19;19960;-79
2023/06/27 09:23:38;;;;;;;;;;;;;;;;;;7598174;19;19937;-78
2023/06/27 09:26:10;;;;;;;;;;;;;;;;;;7599828;19;20013;-79
2023/06/27 09:28:43;;;;;;;;;;;;;;;;;;7592797;19;19922;-78
2023/06/27 09:31:15;;;;;;;;;;;;;;;;;;7575731;19;19943;-76
2023/06/27 09:33:48;;;;;;;;;;;;;;;;;;7573513;19;19925;-79
2023/06/27 09:36:23;;;;;;;;;;;;;;;;;;7603873;19;21019;-78
2023/06/27 09:39:16;;;;;;;;;;;;;;;;;;7588028;19;19929;-77
2023/06/27 09:41:49;;;;;;;;;;;;;;;;;;7598190;19;19923;-76
2023/06/27 09:44:22;;;;;;;;;;;;;;;;;;7587522;19;19926;-76
2023/06/27 09:46:54;;;;;;;;;;;;;;;;;;7584958;19;19956;-76
2023/06/27 09:49:27;;;;;;;;;;;;;;;;;;7594108;19;19921;-77
2023/06/27 09:52:00;;;;;;;;;;;;;;;;;;7587121;19;19922;-78
2023/06/27 09:54:33;;;;;;;;;;;;;;;;;;7574889;19;19934;-78
2023/06/27 09:57:05;;;;;;;;;;;;;;;;;;7592661;19;19933;-78
2023/06/27 09:59:38;;;;;;;;;;;;;;;;;;7585875;19;19921;-77
2023/06/27 10:02:11;;;;;;;;;;;;;;;;;;7592738;19;19939;-76
2023/06/27 10:04:43;;;;;;;;;;;;;;;;;;7582836;19;20291;-76
2023/06/27 10:07:16;;;;;;;;;;;;;;;;;;7547324;19;20545;-76
2023/06/27 10:09:48;;;;;;;;;;;;;;;;;;7587533;19;20874;-78
2023/06/27 10:12:21;;;;;;;;;;;;;;;;;;7574096;19;20495;-78
2023/06/27 10:14:53;;;;;;;;;;;;;;;;;;7592013;19;19937;-77
2023/06/27 10:17:26;;;;;;;;;;;;;;;;;;7578696;19;20020;-76
2023/06/27 10:19:58;;;;;;;;;;;;;;;;;;7583223;19;19931;-75
2023/06/27 10:22:30;;;;;;;;;;;;;;;;;;7580512;19;19922;-75
2023/06/27 10:25:04;;;;;;;;;;;;;;;;;;6592362;19;9999910;-76
2023/06/27 10:27:38;;;;;;;;;;;;;;;;;;7586621;19;19934;-76
2023/06/27 10:30:11;;;;;;;;;;;;;;;;;;7578189;19;19923;-75
2023/06/27 10:32:43;;;;;;;;;;;;;;;;;;7566308;19;20278;-77
2023/06/27 10:35:16;;;;;;;;;;;;;;;;;;7585398;19;20546;-76
2023/06/27 10:37:49;;;;;;;;;;;;;;;;;;7587679;19;19926;-77
2023/06/27 10:40:21;;;;;;;;;;;;;;;;;;7584851;19;19958;-77
2023/06/27 10:42:54;;;;;;;;;;;;;;;;;;7572946;19;20002;-77
2023/06/27 10:45:26;;;;;;;;;;;;;;;;;;7577322;19;19918;-77
2023/06/27 10:47:59;;;;;;;;;;;;;;;;;;7540042;19;20242;-76
2023/06/27 10:50:35;;;;;;;;;;;;;;;;;;7555392;19;19918;-76
2023/06/27 10:53:07;;;;;;;;;;;;;;;;;;7541168;19;19911;-78
2023/06/27 10:55:40;;;;;;;;;;;;;;;;;;7553248;19;19919;-77
2023/06/27 10:58:14;;;;;;;;;;;;;;;;;;7575733;19;20013;-76
2023/06/27 11:00:46;;;;;;;;;;;;;;;;;;7601123;19;19925;-77
2023/06/27 11:03:20;;;;;;;;;;;;;;;;;;7544266;19;19965;-80
2023/06/27 11:05:54;;;;;;;;;;;;;;;;;;7576016;19;19914;-78
2023/06/27 11:08:27;;;;;;;;;;;;;;;;;;7573216;19;19937;-79
2023/06/27 11:11:00;;;;;;;;;;;;;;;;;;7576634;19;19921;-79
2023/06/27 11:13:33;;;;;;;;;;;;;;;;;;7580168;19;19918;-81
2023/06/27 11:16:05;;;;;;;;;;;19.20;75.30;;;;;;7592904;19;19929;-79
2023/06/27 11:18:37;;;;;;;;;;;23.80;57.40;;;;;;7586994;19;19934;-78
2023/06/27 11:21:10;;;;;;;;;;;23.80;59.20;;;;;;7567139;19;19964;-78
2023/06/27 11:23:46;;;;;;;;;;;24.00;58.50;;;;;;7585225;19;19929;-78
2023/06/27 11:26:18;;;;;;;;;;;;;;;;;;7589721;19;19919;-79
2023/06/27 11:28:51;;;;;;;;;;;;;;;;;;7580896;19;19925;-81
2023/06/27 11:31:23;;;;;;;;;;;;;;;;;;7565348;19;20862;-79
2023/06/27 11:33:57;;;;;;;;;;;;;;;;;;7560179;19;20550;-78
2023/06/27 11:36:29;;;;;;;;;;;;;;;;;;7588647;19;19939;-78
2023/06/27 11:39:03;;;;;;;;;;;;;;;;;;7596692;19;19924;-77
2023/06/27 11:41:35;;;;;;;;;;;;;;;;;;7578326;19;19911;-78
2023/06/27 11:44:09;;;;;;;;;;;;;;;;;;7562952;19;20610;-78
2023/06/27 11:46:41;;;;;;;;;;;;;;;;;;7537545;19;19938;-80
2023/06/27 11:49:14;;;;;;;;;;;;;;;;;;7536953;19;19933;-78
2023/06/27 11:51:46;;;;;;;;;;;;;;;;;;7518765;19;20043;-81
2023/06/27 11:54:19;;;;;;;;;;;24.50;57.30;;;;;;7517354;19;19918;-78
2023/06/27 11:56:51;;;;;;;;;;;24.70;54.20;;;;;;7537187;19;19907;-78
2023/06/27 11:59:32;;;;;;;;;;;24.60;56.20;;;;;;7523847;19;19964;-81
2023/06/27 12:02:05;;;;;;;;;;;;;;;;;;7580620;19;20683;-81
2023/06/27 12:04:38;;;;;;;;;;;;;;;;;;7557818;19;19942;-81
2023/06/27 12:07:10;;;;;;;;;;;;;;;;;;7567204;19;19998;-79
2023/06/27 12:09:43;;;;;;;;;;;;;;;;;;7559090;19;20602;-81
2023/06/27 12:12:16;;;;;;;;;;;;;;;;;;7528660;19;19926;-78
2023/06/27 12:14:50;;;;;;;;;;;;;;;;;;7574542;19;20646;-80
2023/06/27 12:17:22;;;;;;;;;;;24.60;55.50;;;;;;7567882;19;20773;-79
2023/06/27 12:19:55;;;;;;;;;;;24.10;53.00;;;;;;7557190;19;22015;-80
2023/06/27 12:22:27;;;;;;;;;;;24.10;54.60;;;;;;7578680;19;19926;-79
2023/06/27 12:24:59;;;;;;;;;;;24.30;55.10;;;;;;7559575;19;19955;-79
2023/06/27 12:27:34;;;;;;;;;;;24.50;55.00;;;;;;7554301;19;19954;-79
2023/06/27 12:30:09;;;;;;;;;;;24.40;54.40;;;;;;7559443;19;19927;-77
2023/06/27 12:32:41;;;;;;;;;;;24.40;54.60;;;;;;7552820;19;19927;-78
2023/06/27 12:35:18;;;;;;;;;;;24.30;54.30;;;;;;7597094;19;19926;-77
2023/06/27 12:37:50;;;;;;;;;;;24.10;54.50;;;;;;7592605;19;20305;-78
2023/06/27 12:40:22;;;;;;;;;;;24.20;55.20;;;;;;7600358;19;20029;-77
2023/06/27 12:42:55;;;;;;;;;;;24.50;55.70;;;;;;7581372;19;19986;-77
2023/06/27 12:45:29;;;;;;;;;;;24.70;58.10;;;;;;7584930;19;21154;-77
2023/06/27 12:48:06;;;;;;;;;;;24.50;59.80;;;;;;7590204;19;20900;-77
2023/06/27 12:50:38;;;;;;;;;;;24.40;59.40;;;;;;7595430;19;19939;-77
2023/06/27 12:53:10;;;;;;;;;;;24.20;60.80;;;;;;7600203;19;19926;-77
2023/06/27 12:55:43;;;;;;;;;;;23.90;61.10;;;;;;7571582;19;19919;-77
2023/06/27 12:58:15;;;;;;;;;;;23.80;61.60;;;;;;7549890;19;19960;-78
2023/06/27 13:00:47;;;;;;;;;;;23.80;61.40;;;;;;7490434;19;20458;-76
2023/06/27 13:03:28;;;;;;;;;;;23.80;61.40;;;;;;7535633;19;19921;-76
2023/06/27 13:06:01;;;;;;;;;;;23.90;61.00;;;;;;7523401;19;19937;-79
2023/06/27 13:08:34;;;;;;;;;;;23.80;61.30;;;;;;7570872;19;19922;-78
2023/06/27 13:11:07;;;;;;;;;;;23.90;61.50;;;;;;7575188;19;19922;-77
2023/06/27 13:13:54;;;;;;;;;;;24.10;61.10;;;;;;7562795;19;19927;-77
2023/06/27 13:16:26;;;;;;;;;;;;;;;;;;7541517;19;20378;-78
2023/06/27 13:18:59;;;;;;;;;;;;;;;;;;7555227;19;19926;-77
2023/06/27 13:21:32;;;;;;;;;;;;;;;;;;7586036;19;19919;-76
2023/06/27 13:24:04;;;;;;;;;;;;;;;;;;7571197;19;19915;-78
2023/06/27 13:26:37;;;;;;;;;;;;;;;;;;7574129;19;19915;-79
2023/06/27 13:29:12;;;;;;;;;;;;;;;;;;7596679;19;19950;-78
2023/06/27 13:31:45;;;;;;;;;;;;;;;;;;7544447;19;19922;-77
2023/06/27 13:34:17;;;;;;;;;;;24.40;60.00;;;;;;7548758;19;20548;-78
2023/06/27 13:36:49;;;;;;;;;;;24.30;59.20;;;;;;7581170;19;19960;-78
2023/06/27 13:39:22;;;;;;;;;;;24.30;58.80;;;;;;7601821;19;19930;-78
2023/06/27 13:41:54;;;;;;;;;;;23.90;57.80;;;;;;7571004;19;19971;-78
2023/06/27 13:44:26;;;;;;;;;;;23.90;59.50;;;;;;7557951;19;20828;-79
2023/06/27 13:46:59;;;;;;;;;;;;;;;;;;7546172;19;19961;-79
2023/06/27 13:49:31;;;;;;;;;;;;;;;;;;7580514;19;19918;-79
2023/06/27 13:52:04;;;;;;;;;;;;;;;;;;7564561;19;20610;-80
2023/06/27 13:54:37;;;;;;;;;;;;;;;;;;7571727;19;19925;-80
2023/06/27 13:57:10;;;;;;;;;;;;;;;;;;7580181;19;19918;-80
2023/06/27 13:59:42;;;;;;;;;;;24.40;58.60;;;;;;7562672;19;20492;-77
2023/06/27 14:02:14;;;;;;;;;;;24.20;57.70;;;;;;7554676;19;20020;-78
2023/06/27 14:05:06;;;;;;;;;;;24.20;57.10;;;;;;7543872;19;19939;-79
2023/06/27 14:07:39;;;;;;;;;;;24.10;58.50;;;;;;7532520;19;19929;-78
2023/06/27 14:10:12;;;;;;;;;;;24.30;58.60;;;;;;7505338;19;19925;-79
2023/06/27 14:12:44;;;;;;;;;;;24.50;58.40;;;;;;7549155;19;19978;-77
2023/06/27 14:15:16;;;;;;;;;;;24.30;56.90;;;;;;7523252;19;19922;-79
2023/06/27 14:17:49;;;;;;;;;;;24.20;57.40;;;;;;7552271;19;19970;-79
2023/06/27 14:20:22;;;;;;;;;;;23.70;57.00;;;;;;7619272;19;19994;-78
2023/06/27 14:22:59;;;;;;;;;;;23.90;57.80;;;;;;7610908;19;19922;-78
2023/06/27 14:25:31;;;;;;;;;;;23.80;58.00;;;;;;7614841;19;20726;-77
2023/06/27 14:28:04;;;;;;;;;;;23.80;57.80;;;;;;7594854;19;19922;-78
2023/06/27 14:30:37;;;;;;;;;;;23.90;59.60;;;;;;7619669;19;19922;-79
2023/06/27 14:33:09;;;;;;;;;;;24.10;58.90;;;;;;7613479;19;19922;-78
2023/06/27 14:35:42;;;;;;;;;;;24.00;58.50;;;;;;7606796;19;20325;-79
2023/06/27 14:38:14;;;;;;;;;;;24.20;59.40;;;;;;7607910;19;19976;-78
2023/06/27 14:40:46;;;;;;;;;;;24.30;58.10;;;;;;7608881;19;19923;-79
2023/06/27 14:43:19;;;;;;;;;;;23.90;58.90;;;;;;7607293;19;19939;-77
2023/06/27 14:45:51;;;;;;;;;;;23.70;58.30;;;;;;7584393;19;19970;-79
2023/06/27 14:48:23;;;;;;;;;;;23.80;59.50;;;;;;7603854;19;20023;-79
2023/06/27 14:50:56;;;;;;;;;;;24.30;60.20;;;;;;7600121;19;19915;-77
2023/06/27 14:53:28;;;;;;;;;;;24.00;59.60;;;;;;7582317;19;20030;-78
2023/06/27 14:56:00;;;;;;;;;;;24.10;58.90;;;;;;7582186;19;21065;-78
2023/06/27 14:58:33;;;;;;;;;;;24.10;60.30;;;;;;7592247;19;19934;-77
2023/06/27 15:01:06;;;;;;;;;;;24.00;61.00;;;;;;7596486;19;20025;-77
2023/06/27 15:03:40;;;;;;;;;;;24.10;60.10;;;;;;7589609;19;20320;-79
2023/06/27 15:06:13;;;;;;;;;;;24.10;59.20;;;;;;7562062;19;19915;-76
2023/06/27 15:08:45;;;;;;;;;;;;;;;;;;7582369;19;19922;-76
2023/06/27 15:11:18;;;;;;;;;;;;;;;;;;7549298;19;20605;-76
2023/06/27 15:13:50;;;;;;;;;;;;;;;;;;7551646;19;19937;-76
2023/06/27 15:16:23;;;;;;;;;;;;;;;;;;7570954;19;20055;-77
2023/06/27 15:18:58;;;;;;;;;;;24.30;59.50;;;;;;7552545;19;19968;-76
2023/06/27 15:21:31;;;;;;;;;;;25.80;56.60;;;;;;7574073;19;19927;-78
2023/06/27 15:24:03;;;;;;;;;;;25.70;56.50;;;;;;7581032;19;19922;-77
2023/06/27 15:26:35;;;;;;;;;;;25.70;56.60;;;;;;7592837;19;20084;-76
2023/06/27 15:29:07;;;;;;;;;;;25.70;57.00;;;;;;7585983;19;20365;-78
2023/06/27 15:31:39;;;;;;;;;;;25.50;57.60;;;;;;7582849;19;19915;-76
2023/06/27 15:34:14;;;;;;;;;;;25.50;55.40;;;;;;7562923;19;19926;-77
2023/06/27 15:36:46;;;;;;;;;;;25.80;56.70;;;;;;7596816;19;19921;-76